Aksa, Russia
Current Conditions -  °F | °C
As of 1:30 PM on Sunday 26 Oct 2014 (Local Time) from UIAA Reporting Station
Broken Clouds Broken Clouds  
Wind Chill: 23°   Ceiling: 20000
Heat Index: 23°   Visibility: 6mi
Dew Point: -4°   Wind: 2mph
Humidity: 31%   Direction: NA
Pressure: 30.5"   Gusts: NA
Location:  50.27°N, 113.27°E
Report Text: UIAA 260430Z VRB01MPS 9999 BKN200 M05/M20 Q1033 NOSIG RMKQFE715 29CLRD70
Loading
Personal Weather Stations






























Interactive Weather Map New forecast layout! Learn more

10-Day Weather Forecast

Advertisements
Track Severe Weather on mobile